Pskov, Russia
Current Conditions -  °F | °C
As of 2:00 PM on Wednesday 26 Nov 2014 (Local Time) from ULOO Reporting Station
Light Snow Light Snow  
Wind Chill: 21°   Ceiling: 400
Heat Index: 27°   Visibility: 1.5mi
Dew Point: 27°   Wind: 4mph
Humidity: 100%   Direction: 160°SSE
Pressure: 30.39"   Gusts: NA
Location:  57.83°N, 28.33°E
Report Text: ULOO 261100Z 16002MPS 2400 -SN BR OVC004 M03/M03 Q1029 19790235NOSIG RMK QBB140 OBST OBSC QFE767
Loading
Personal Weather Stations






























Interactive Weather Map New forecast layout! Learn more

10-Day Weather Forecast

Advertisements
Track Severe Weather on mobile